TimeCST,TemperatureF,Dew PointF,Humidity,Sea Level PressureIn,VisibilityMPH,Wind Direction,Wind SpeedMPH,Gust SpeedMPH,PrecipitationIn,Events,Conditions,WindDirDegrees,DateUTC
12:15 AM,32.0,28.4,87,30.42,10.0,North,3.5,-,N/A,,Clear,350,2013-01-04 06:15:00
12:35 AM,32.0,28.4,87,30.41,10.0,North,3.5,-,N/A,,Clear,360,2013-01-04 06:35:00
12:55 AM,32.0,28.4,87,30.42,10.0,North,-9999.0,-,N/A,,Clear,0,2013-01-04 06:55:00
1:15 AM,30.2,26.6,86,30.42,10.0,North,-9999.0,-,N/A,,Clear,0,2013-01-04 07:15:00
1:35 AM,30.2,26.6,86,30.43,10.0,North,-9999.0,-,N/A,,Clear,0,2013-01-04 07:35:00
1:55 AM,28.4,26.6,93,30.42,10.0,North,-9999.0,-,N/A,,Clear,0,2013-01-04 07:55:00
2:15 AM,26.6,24.8,93,30.43,10.0,Calm,Calm,-,N/A,,Clear,0,2013-01-04 08:15:00
2:55 AM,26.6,24.8,93,30.43,10.0,Calm,Calm,-,N/A,,Clear,0,2013-01-04 08:55:00
3:15 AM,26.6,24.8,93,30.43,9.0,North,-9999.0,-,N/A,,Clear,0,2013-01-04 09:15:00
5:55 AM,24.8,23.0,93,30.44,7.0,Calm,Calm,-,N/A,,Clear,0,2013-01-04 11:55:00
6:15 AM,26.6,23.0,86,30.44,8.0,Calm,Calm,-,N/A,,Clear,0,2013-01-04 12:15:00
6:35 AM,26.6,23.0,86,30.45,9.0,Calm,Calm,-,N/A,,Clear,0,2013-01-04 12:35:00
6:55 AM,26.6,23.0,86,30.45,8.0,Calm,Calm,-,N/A,,Clear,0,2013-01-04 12:55:00
7:15 AM,24.8,23.0,93,30.46,7.0,North,-9999.0,-,N/A,,Clear,0,2013-01-04 13:15:00
7:35 AM,26.6,23.0,86,30.47,8.0,North,3.5,-,N/A,,Clear,350,2013-01-04 13:35:00
7:55 AM,30.2,26.6,86,30.47,7.0,NNE,3.5,-,N/A,,Clear,20,2013-01-04 13:55:00
8:15 AM,32.0,28.4,87,30.48,6.0,North,3.5,-,N/A,,Clear,10,2013-01-04 14:15:00
8:35 AM,32.0,30.2,93,30.48,7.0,Calm,Calm,-,N/A,,Clear,0,2013-01-04 14:35:00
8:55 AM,33.8,32.0,93,30.49,7.0,Calm,Calm,-,N/A,,Clear,0,2013-01-04 14:55:00
9:15 AM,37.4,32.0,81,30.49,8.0,Calm,Calm,-,N/A,,Clear,0,2013-01-04 15:15:00
9:35 AM,39.2,32.0,75,30.49,8.0,Calm,Calm,-,N/A,,Clear,0,2013-01-04 15:35:00
9:55 AM,42.8,33.8,70,30.50,9.0,Calm,Calm,-,N/A,,Clear,0,2013-01-04 15:55:00
10:15 AM,44.6,35.6,71,30.51,9.0,North,3.5,-,N/A,,Clear,360,2013-01-04 16:15:00
10:35 AM,44.6,35.6,71,30.51,9.0,North,4.6,-,N/A,,Clear,360,2013-01-04 16:35:00
10:55 AM,46.4,35.6,66,30.50,9.0,NNW,4.6,-,N/A,,Clear,330,2013-01-04 16:55:00
11:15 AM,48.2,35.6,62,30.49,10.0,NNW,4.6,-,N/A,,Clear,330,2013-01-04 17:15:00
11:35 AM,48.2,35.6,62,30.48,9.0,North,5.8,-,N/A,,Clear,10,2013-01-04 17:35:00
11:55 AM,50.0,37.4,62,30.46,9.0,NNE,3.5,-,N/A,,Clear,20,2013-01-04 17:55:00
12:15 PM,50.0,37.4,62,30.45,10.0,North,6.9,-,N/A,,Clear,350,2013-01-04 18:15:00
12:55 PM,51.8,37.4,58,30.43,9.0,North,4.6,-,N/A,,Clear,350,2013-01-04 18:55:00
1:15 PM,51.8,37.4,58,30.42,10.0,NW,3.5,-,N/A,,Clear,310,2013-01-04 19:15:00
1:35 PM,53.6,37.4,54,30.41,9.0,North,5.8,-,N/A,,Clear,350,2013-01-04 19:35:00
1:55 PM,53.6,37.4,54,30.41,9.0,NNW,5.8,-,N/A,,Clear,330,2013-01-04 19:55:00
2:15 PM,53.6,37.4,54,30.40,9.0,NNW,4.6,-,N/A,,Clear,340,2013-01-04 20:15:00
2:35 PM,53.6,37.4,54,30.40,9.0,North,6.9,-,N/A,,Clear,360,2013-01-04 20:35:00
2:55 PM,53.6,37.4,54,30.40,10.0,North,6.9,-,N/A,,Clear,350,2013-01-04 20:55:00
3:15 PM,51.8,37.4,58,30.41,9.0,NW,6.9,-,N/A,,Clear,320,2013-01-04 21:15:00
3:35 PM,51.8,35.6,54,30.41,10.0,NNW,6.9,-,N/A,,Clear,330,2013-01-04 21:35:00
4:15 PM,48.2,33.8,58,30.41,9.0,NW,5.8,-,N/A,,Clear,320,2013-01-04 22:15:00
4:35 PM,44.6,33.8,66,30.41,9.0,WNW,3.5,-,N/A,,Clear,300,2013-01-04 22:35:00
4:55 PM,42.8,32.0,66,30.42,9.0,Calm,Calm,-,N/A,,Clear,0,2013-01-04 22:55:00
5:15 PM,39.2,30.2,70,30.42,10.0,Calm,Calm,-,N/A,,Clear,0,2013-01-04 23:15:00
5:35 PM,37.4,30.2,75,30.42,10.0,North,-9999.0,-,N/A,,Clear,0,2013-01-04 23:35:00
5:55 PM,37.4,30.2,75,30.43,10.0,Calm,Calm,-,N/A,,Clear,0,2013-01-04 23:55:00
6:15 PM,35.6,28.4,75,30.43,10.0,Calm,Calm,-,N/A,,Clear,0,2013-01-05 00:15:00
6:55 PM,33.8,28.4,81,30.43,10.0,Calm,Calm,-,N/A,,Clear,0,2013-01-05 00:55:00
7:15 PM,32.0,28.4,87,30.42,10.0,Calm,Calm,-,N/A,,Clear,0,2013-01-05 01:15:00
7:35 PM,32.0,28.4,87,30.43,10.0,North,-9999.0,-,N/A,,Clear,0,2013-01-05 01:35:00
7:55 PM,32.0,28.4,87,30.42,10.0,North,-9999.0,-,N/A,,Clear,0,2013-01-05 01:55:00
8:15 PM,32.0,26.6,80,30.43,10.0,Calm,Calm,-,N/A,,Clear,0,2013-01-05 02:15:00
8:35 PM,32.0,26.6,80,30.42,10.0,Calm,Calm,-,N/A,,Clear,0,2013-01-05 02:35:00
9:15 PM,32.0,28.4,87,30.43,10.0,Calm,Calm,-,N/A,,Clear,0,2013-01-05 03:15:00
9:35 PM,30.2,26.6,86,30.42,9.0,Calm,Calm,-,N/A,,Clear,0,2013-01-05 03:35:00
9:55 PM,30.2,26.6,86,30.42,10.0,Calm,Calm,-,N/A,,Clear,0,2013-01-05 03:55:00
10:15 PM,30.2,26.6,86,30.42,10.0,Calm,Calm,-,N/A,,Clear,0,2013-01-05 04:15:00
10:35 PM,30.2,26.6,86,30.42,9.0,Calm,Calm,-,N/A,,Clear,0,2013-01-05 04:35:00
10:55 PM,30.2,26.6,86,30.42,10.0,Calm,Calm,-,N/A,,Clear,0,2013-01-05 04:55:00
11:15 PM,30.2,26.6,86,30.42,9.0,Calm,Calm,-,N/A,,Clear,0,2013-01-05 05:15:00
11:35 PM,28.4,26.6,93,30.41,10.0,North,-9999.0,-,N/A,,Clear,0,2013-01-05 05:35:00
11:55 PM,30.2,26.6,86,30.41,10.0,Calm,Calm,-,N/A,,Clear,0,2013-01-05 05:55:00